sensor_id;sensor_type;location;lat;lon;timestamp;P1;durP1;ratioP1;P2;durP2;ratioP2
30080;SDS011;16902;50.816;12.828;2024-02-26T00:04:19;10.73;;;5.93;;
30080;SDS011;16902;50.816;12.828;2024-02-26T00:09:21;12.23;;;6.22;;
30080;SDS011;16902;50.816;12.828;2024-02-26T00:14:23;3.95;;;3.40;;
30080;SDS011;16902;50.816;12.828;2024-02-26T00:19:25;5.30;;;4.88;;
30080;SDS011;16902;50.816;12.828;2024-02-26T00:24:27;6.70;;;4.15;;
30080;SDS011;16902;50.816;12.828;2024-02-26T00:29:29;4.50;;;4.13;;
30080;SDS011;16902;50.816;12.828;2024-02-26T00:34:31;3.42;;;3.03;;
30080;SDS011;16902;50.816;12.828;2024-02-26T00:39:33;5.78;;;5.18;;
30080;SDS011;16902;50.816;12.828;2024-02-26T00:44:35;5.85;;;3.83;;
30080;SDS011;16902;50.816;12.828;2024-02-26T00:49:37;5.60;;;4.38;;
30080;SDS011;16902;50.816;12.828;2024-02-26T00:54:39;5.35;;;3.88;;
30080;SDS011;16902;50.816;12.828;2024-02-26T00:59:41;7.15;;;4.28;;
30080;SDS011;16902;50.816;12.828;2024-02-26T01:04:43;4.95;;;4.45;;
30080;SDS011;16902;50.816;12.828;2024-02-26T01:09:45;3.92;;;3.63;;
30080;SDS011;16902;50.816;12.828;2024-02-26T01:14:47;4.28;;;3.92;;
30080;SDS011;16902;50.816;12.828;2024-02-26T01:19:49;5.40;;;4.25;;
30080;SDS011;16902;50.816;12.828;2024-02-26T01:24:51;5.78;;;4.70;;
30080;SDS011;16902;50.816;12.828;2024-02-26T01:29:53;5.95;;;4.15;;
30080;SDS011;16902;50.816;12.828;2024-02-26T01:34:55;3.08;;;2.88;;
30080;SDS011;16902;50.816;12.828;2024-02-26T01:39:57;4.85;;;4.43;;
30080;SDS011;16902;50.816;12.828;2024-02-26T01:44:59;6.07;;;5.57;;
30080;SDS011;16902;50.816;12.828;2024-02-26T01:50:01;3.47;;;3.28;;
30080;SDS011;16902;50.816;12.828;2024-02-26T01:55:04;3.10;;;2.88;;
30080;SDS011;16902;50.816;12.828;2024-02-26T02:00:06;14.40;;;5.57;;
30080;SDS011;16902;50.816;12.828;2024-02-26T02:05:09;6.50;;;4.78;;
30080;SDS011;16902;50.816;12.828;2024-02-26T02:10:13;5.38;;;4.15;;
30080;SDS011;16902;50.816;12.828;2024-02-26T02:15:15;3.65;;;3.35;;
30080;SDS011;16902;50.816;12.828;2024-02-26T02:20:17;8.57;;;3.83;;
30080;SDS011;16902;50.816;12.828;2024-02-26T02:25:20;5.13;;;3.72;;
30080;SDS011;16902;50.816;12.828;2024-02-26T02:30:26;5.05;;;4.55;;
30080;SDS011;16902;50.816;12.828;2024-02-26T02:35:31;3.92;;;3.60;;
30080;SDS011;16902;50.816;12.828;2024-02-26T02:40:33;4.57;;;4.10;;
30080;SDS011;16902;50.816;12.828;2024-02-26T02:45:35;3.50;;;3.20;;
30080;SDS011;16902;50.816;12.828;2024-02-26T02:50:37;3.47;;;3.27;;
30080;SDS011;16902;50.816;12.828;2024-02-26T02:55:40;5.70;;;3.83;;
30080;SDS011;16902;50.816;12.828;2024-02-26T03:00:42;2.87;;;2.37;;
30080;SDS011;16902;50.816;12.828;2024-02-26T03:05:43;4.50;;;2.95;;
30080;SDS011;16902;50.816;12.828;2024-02-26T03:10:45;6.40;;;4.60;;
30080;SDS011;16902;50.816;12.828;2024-02-26T03:15:47;3.13;;;2.57;;
30080;SDS011;16902;50.816;12.828;2024-02-26T03:20:49;4.88;;;4.20;;
30080;SDS011;16902;50.816;12.828;2024-02-26T03:25:51;6.20;;;3.85;;
30080;SDS011;16902;50.816;12.828;2024-02-26T03:30:53;4.97;;;4.00;;
30080;SDS011;16902;50.816;12.828;2024-02-26T03:35:55;5.43;;;3.72;;
30080;SDS011;16902;50.816;12.828;2024-02-26T03:40:57;4.60;;;3.07;;
30080;SDS011;16902;50.816;12.828;2024-02-26T03:45:59;3.17;;;2.95;;
30080;SDS011;16902;50.816;12.828;2024-02-26T03:51:01;5.15;;;4.78;;
30080;SDS011;16902;50.816;12.828;2024-02-26T03:56:03;5.18;;;4.68;;
30080;SDS011;16902;50.816;12.828;2024-02-26T04:01:09;4.93;;;4.45;;
30080;SDS011;16902;50.816;12.828;2024-02-26T04:06:11;15.07;;;4.60;;
30080;SDS011;16902;50.816;12.828;2024-02-26T04:11:15;5.70;;;4.65;;
30080;SDS011;16902;50.816;12.828;2024-02-26T04:16:19;3.85;;;2.97;;
30080;SDS011;16902;50.816;12.828;2024-02-26T04:21:21;3.97;;;3.67;;
30080;SDS011;16902;50.816;12.828;2024-02-26T04:26:23;4.35;;;3.65;;
30080;SDS011;16902;50.816;12.828;2024-02-26T04:31:24;3.72;;;3.42;;
30080;SDS011;16902;50.816;12.828;2024-02-26T04:36:27;6.25;;;5.03;;
30080;SDS011;16902;50.816;12.828;2024-02-26T04:41:29;5.27;;;4.57;;
30080;SDS011;16902;50.816;12.828;2024-02-26T04:46:30;3.87;;;3.67;;
30080;SDS011;16902;50.816;12.828;2024-02-26T04:51:32;6.00;;;5.15;;
30080;SDS011;16902;50.816;12.828;2024-02-26T04:56:34;2.63;;;2.40;;
30080;SDS011;16902;50.816;12.828;2024-02-26T05:01:35;7.18;;;4.75;;
30080;SDS011;16902;50.816;12.828;2024-02-26T05:06:38;4.80;;;4.10;;
30080;SDS011;16902;50.816;12.828;2024-02-26T05:11:40;3.83;;;3.30;;
30080;SDS011;16902;50.816;12.828;2024-02-26T05:16:43;6.77;;;3.83;;
30080;SDS011;16902;50.816;12.828;2024-02-26T05:21:45;3.85;;;3.47;;
30080;SDS011;16902;50.816;12.828;2024-02-26T05:26:48;7.17;;;3.50;;
30080;SDS011;16902;50.816;12.828;2024-02-26T05:31:50;5.23;;;2.87;;
30080;SDS011;16902;50.816;12.828;2024-02-26T05:36:52;9.57;;;3.63;;
30080;SDS011;16902;50.816;12.828;2024-02-26T05:41:53;4.70;;;4.23;;
30080;SDS011;16902;50.816;12.828;2024-02-26T05:46:55;7.20;;;5.30;;
30080;SDS011;16902;50.816;12.828;2024-02-26T05:51:57;4.53;;;4.03;;
30080;SDS011;16902;50.816;12.828;2024-02-26T05:56:58;6.90;;;4.00;;
30080;SDS011;16902;50.816;12.828;2024-02-26T06:02:00;3.57;;;3.27;;
30080;SDS011;16902;50.816;12.828;2024-02-26T06:07:02;4.13;;;3.37;;
30080;SDS011;16902;50.816;12.828;2024-02-26T06:12:04;4.22;;;4.03;;
30080;SDS011;16902;50.816;12.828;2024-02-26T06:17:06;7.47;;;3.87;;
30080;SDS011;16902;50.816;12.828;2024-02-26T06:22:08;4.37;;;4.07;;
30080;SDS011;16902;50.816;12.828;2024-02-26T06:27:10;4.28;;;3.97;;
30080;SDS011;16902;50.816;12.828;2024-02-26T06:32:11;5.55;;;5.20;;
30080;SDS011;16902;50.816;12.828;2024-02-26T06:37:13;4.05;;;3.20;;
30080;SDS011;16902;50.816;12.828;2024-02-26T06:42:15;5.28;;;3.78;;
30080;SDS011;16902;50.816;12.828;2024-02-26T06:47:16;4.65;;;4.25;;
30080;SDS011;16902;50.816;12.828;2024-02-26T06:52:18;3.42;;;3.13;;
30080;SDS011;16902;50.816;12.828;2024-02-26T06:57:20;5.28;;;2.97;;
30080;SDS011;16902;50.816;12.828;2024-02-26T07:02:22;2.47;;;2.30;;
30080;SDS011;16902;50.816;12.828;2024-02-26T07:07:24;3.58;;;3.25;;
30080;SDS011;16902;50.816;12.828;2024-02-26T07:12:27;9.63;;;3.97;;
30080;SDS011;16902;50.816;12.828;2024-02-26T07:17:28;3.95;;;3.50;;
30080;SDS011;16902;50.816;12.828;2024-02-26T07:22:31;5.72;;;4.20;;
30080;SDS011;16902;50.816;12.828;2024-02-26T07:27:33;4.18;;;3.75;;
30080;SDS011;16902;50.816;12.828;2024-02-26T07:32:34;5.18;;;4.15;;
30080;SDS011;16902;50.816;12.828;2024-02-26T07:37:36;7.22;;;4.32;;
30080;SDS011;16902;50.816;12.828;2024-02-26T07:42:38;5.95;;;4.15;;
30080;SDS011;16902;50.816;12.828;2024-02-26T07:47:40;5.97;;;3.42;;
30080;SDS011;16902;50.816;12.828;2024-02-26T07:52:43;6.65;;;4.43;;
30080;SDS011;16902;50.816;12.828;2024-02-26T07:57:46;5.70;;;3.97;;
30080;SDS011;16902;50.816;12.828;2024-02-26T08:02:48;8.75;;;5.32;;
30080;SDS011;16902;50.816;12.828;2024-02-26T08:07:50;5.25;;;4.07;;
30080;SDS011;16902;50.816;12.828;2024-02-26T08:12:51;4.38;;;3.97;;
30080;SDS011;16902;50.816;12.828;2024-02-26T08:17:53;10.27;;;4.65;;
30080;SDS011;16902;50.816;12.828;2024-02-26T08:22:56;10.57;;;5.00;;
30080;SDS011;16902;50.816;12.828;2024-02-26T08:27:58;4.32;;;3.92;;
30080;SDS011;16902;50.816;12.828;2024-02-26T08:32:59;5.75;;;4.30;;
30080;SDS011;16902;50.816;12.828;2024-02-26T08:38:01;5.88;;;5.28;;
30080;SDS011;16902;50.816;12.828;2024-02-26T08:43:04;5.47;;;4.53;;
30080;SDS011;16902;50.816;12.828;2024-02-26T08:48:05;5.15;;;4.75;;
30080;SDS011;16902;50.816;12.828;2024-02-26T08:53:09;4.18;;;3.80;;
30080;SDS011;16902;50.816;12.828;2024-02-26T08:58:10;5.35;;;4.70;;
30080;SDS011;16902;50.816;12.828;2024-02-26T09:03:12;6.22;;;4.10;;
30080;SDS011;16902;50.816;12.828;2024-02-26T09:08:14;4.97;;;4.57;;
30080;SDS011;16902;50.816;12.828;2024-02-26T09:13:16;5.35;;;4.85;;
30080;SDS011;16902;50.816;12.828;2024-02-26T09:18:20;8.32;;;5.47;;
30080;SDS011;16902;50.816;12.828;2024-02-26T09:23:22;5.40;;;4.90;;
30080;SDS011;16902;50.816;12.828;2024-02-26T09:28:24;5.40;;;4.90;;
30080;SDS011;16902;50.816;12.828;2024-02-26T09:33:26;4.68;;;4.32;;
30080;SDS011;16902;50.816;12.828;2024-02-26T09:38:28;5.43;;;5.05;;
30080;SDS011;16902;50.816;12.828;2024-02-26T09:43:37;6.00;;;5.60;;
30080;SDS011;16902;50.816;12.828;2024-02-26T09:48:43;6.07;;;5.68;;
30080;SDS011;16902;50.816;12.828;2024-02-26T09:53:46;6.63;;;6.15;;
30080;SDS011;16902;50.816;12.828;2024-02-26T09:58:55;7.88;;;7.55;;
30080;SDS011;16902;50.816;12.828;2024-02-26T10:03:58;8.48;;;7.78;;
30080;SDS011;16902;50.816;12.828;2024-02-26T10:09:01;7.60;;;7.22;;
30080;SDS011;16902;50.816;12.828;2024-02-26T10:14:07;7.60;;;7.30;;
30080;SDS011;16902;50.816;12.828;2024-02-26T10:19:15;8.63;;;8.13;;
30080;SDS011;16902;50.816;12.828;2024-02-26T10:24:28;9.57;;;9.18;;
30080;SDS011;16902;50.816;12.828;2024-02-26T10:29:31;11.43;;;10.77;;
30080;SDS011;16902;50.816;12.828;2024-02-26T10:34:34;12.70;;;12.10;;
30080;SDS011;16902;50.816;12.828;2024-02-26T10:39:41;13.15;;;12.55;;
30080;SDS011;16902;50.816;12.828;2024-02-26T10:44:48;13.90;;;13.30;;
30080;SDS011;16902;50.816;12.828;2024-02-26T10:49:50;14.80;;;14.10;;
30080;SDS011;16902;50.816;12.828;2024-02-26T10:54:53;13.85;;;13.25;;
30080;SDS011;16902;50.816;12.828;2024-02-26T11:00:03;14.30;;;13.60;;
30080;SDS011;16902;50.816;12.828;2024-02-26T11:05:06;15.88;;;15.07;;
30080;SDS011;16902;50.816;12.828;2024-02-26T11:10:09;16.08;;;15.18;;
30080;SDS011;16902;50.816;12.828;2024-02-26T11:15:13;16.33;;;15.52;;
30080;SDS011;16902;50.816;12.828;2024-02-26T11:20:15;16.17;;;15.45;;
30080;SDS011;16902;50.816;12.828;2024-02-26T11:25:19;17.73;;;16.63;;
30080;SDS011;16902;50.816;12.828;2024-02-26T11:30:21;17.48;;;16.38;;
30080;SDS011;16902;50.816;12.828;2024-02-26T11:35:24;16.92;;;16.13;;
30080;SDS011;16902;50.816;12.828;2024-02-26T11:40:26;16.65;;;15.85;;
30080;SDS011;16902;50.816;12.828;2024-02-26T11:50:41;17.15;;;16.25;;
30080;SDS011;16902;50.816;12.828;2024-02-26T11:55:44;17.67;;;16.77;;
30080;SDS011;16902;50.816;12.828;2024-02-26T12:00:46;17.00;;;16.10;;
30080;SDS011;16902;50.816;12.828;2024-02-26T12:05:48;16.90;;;16.00;;
30080;SDS011;16902;50.816;12.828;2024-02-26T12:10:50;17.20;;;16.40;;
30080;SDS011;16902;50.816;12.828;2024-02-26T12:15:59;17.40;;;16.58;;
30080;SDS011;16902;50.816;12.828;2024-02-26T12:21:02;17.30;;;16.40;;
30080;SDS011;16902;50.816;12.828;2024-02-26T12:26:05;17.08;;;16.23;;
30080;SDS011;16902;50.816;12.828;2024-02-26T12:31:11;17.35;;;16.48;;
30080;SDS011;16902;50.816;12.828;2024-02-26T12:36:12;17.13;;;16.27;;
30080;SDS011;16902;50.816;12.828;2024-02-26T12:41:14;17.70;;;16.73;;
30080;SDS011;16902;50.816;12.828;2024-02-26T12:46:16;17.27;;;16.38;;
30080;SDS011;16902;50.816;12.828;2024-02-26T12:51:18;17.20;;;16.38;;
30080;SDS011;16902;50.816;12.828;2024-02-26T12:56:21;17.30;;;16.35;;
30080;SDS011;16902;50.816;12.828;2024-02-26T13:01:24;17.13;;;16.33;;
30080;SDS011;16902;50.816;12.828;2024-02-26T13:06:26;18.05;;;17.15;;
30080;SDS011;16902;50.816;12.828;2024-02-26T13:11:28;17.02;;;16.13;;
30080;SDS011;16902;50.816;12.828;2024-02-26T13:16:32;16.23;;;15.43;;
30080;SDS011;16902;50.816;12.828;2024-02-26T13:21:34;16.35;;;15.45;;
30080;SDS011;16902;50.816;12.828;2024-02-26T13:26:36;17.20;;;16.30;;
30080;SDS011;16902;50.816;12.828;2024-02-26T13:31:39;16.80;;;15.70;;
30080;SDS011;16902;50.816;12.828;2024-02-26T13:36:45;16.42;;;15.52;;
30080;SDS011;16902;50.816;12.828;2024-02-26T13:41:47;17.38;;;16.48;;
30080;SDS011;16902;50.816;12.828;2024-02-26T13:46:49;17.02;;;16.20;;
30080;SDS011;16902;50.816;12.828;2024-02-26T13:51:51;17.60;;;16.55;;
30080;SDS011;16902;50.816;12.828;2024-02-26T13:56:53;18.35;;;17.27;;
30080;SDS011;16902;50.816;12.828;2024-02-26T14:01:55;19.15;;;18.05;;
30080;SDS011;16902;50.816;12.828;2024-02-26T14:06:57;17.77;;;16.88;;
30080;SDS011;16902;50.816;12.828;2024-02-26T14:11:59;17.83;;;16.92;;
30080;SDS011;16902;50.816;12.828;2024-02-26T14:17:05;18.80;;;17.80;;
30080;SDS011;16902;50.816;12.828;2024-02-26T14:22:07;18.80;;;17.80;;
30080;SDS011;16902;50.816;12.828;2024-02-26T14:27:10;18.25;;;17.25;;
30080;SDS011;16902;50.816;12.828;2024-02-26T14:32:17;18.88;;;17.63;;
30080;SDS011;16902;50.816;12.828;2024-02-26T14:37:19;18.67;;;17.67;;
30080;SDS011;16902;50.816;12.828;2024-02-26T14:42:21;18.63;;;17.42;;
30080;SDS011;16902;50.816;12.828;2024-02-26T14:47:23;17.52;;;16.52;;
30080;SDS011;16902;50.816;12.828;2024-02-26T14:52:25;18.30;;;17.20;;
30080;SDS011;16902;50.816;12.828;2024-02-26T14:57:27;17.50;;;16.50;;
30080;SDS011;16902;50.816;12.828;2024-02-26T15:02:29;16.52;;;15.63;;
30080;SDS011;16902;50.816;12.828;2024-02-26T15:07:30;16.38;;;15.48;;
30080;SDS011;16902;50.816;12.828;2024-02-26T15:12:32;16.05;;;15.15;;
30080;SDS011;16902;50.816;12.828;2024-02-26T15:17:34;16.00;;;15.20;;
30080;SDS011;16902;50.816;12.828;2024-02-26T15:22:38;16.05;;;15.13;;
30080;SDS011;16902;50.816;12.828;2024-02-26T15:27:41;16.13;;;15.23;;
30080;SDS011;16902;50.816;12.828;2024-02-26T15:32:43;15.73;;;14.73;;
30080;SDS011;16902;50.816;12.828;2024-02-26T15:37:45;15.48;;;14.48;;
30080;SDS011;16902;50.816;12.828;2024-02-26T15:42:47;14.30;;;13.52;;
30080;SDS011;16902;50.816;12.828;2024-02-26T15:47:49;15.10;;;13.85;;
30080;SDS011;16902;50.816;12.828;2024-02-26T15:52:51;14.73;;;13.77;;
30080;SDS011;16902;50.816;12.828;2024-02-26T15:57:53;13.90;;;12.90;;
30080;SDS011;16902;50.816;12.828;2024-02-26T16:02:55;13.57;;;12.32;;
30080;SDS011;16902;50.816;12.828;2024-02-26T16:07:58;11.80;;;11.02;;
30080;SDS011;16902;50.816;12.828;2024-02-26T16:13:04;11.38;;;10.48;;
30080;SDS011;16902;50.816;12.828;2024-02-26T16:18:07;24.80;;;16.00;;
30080;SDS011;16902;50.816;12.828;2024-02-26T16:23:10;11.20;;;10.38;;
30080;SDS011;16902;50.816;12.828;2024-02-26T16:28:12;10.30;;;9.23;;
30080;SDS011;16902;50.816;12.828;2024-02-26T16:33:14;9.45;;;8.65;;
30080;SDS011;16902;50.816;12.828;2024-02-26T16:38:17;9.73;;;8.82;;
30080;SDS011;16902;50.816;12.828;2024-02-26T16:43:19;9.85;;;8.82;;
30080;SDS011;16902;50.816;12.828;2024-02-26T16:48:21;7.97;;;7.22;;
30080;SDS011;16902;50.816;12.828;2024-02-26T16:53:23;8.00;;;6.90;;
30080;SDS011;16902;50.816;12.828;2024-02-26T16:58:24;8.68;;;6.45;;
30080;SDS011;16902;50.816;12.828;2024-02-26T17:03:26;10.60;;;6.90;;
30080;SDS011;16902;50.816;12.828;2024-02-26T17:08:28;8.52;;;6.10;;
30080;SDS011;16902;50.816;12.828;2024-02-26T17:13:35;6.65;;;6.05;;
30080;SDS011;16902;50.816;12.828;2024-02-26T17:18:37;7.75;;;6.55;;
30080;SDS011;16902;50.816;12.828;2024-02-26T17:23:39;7.68;;;6.00;;
30080;SDS011;16902;50.816;12.828;2024-02-26T17:28:41;9.13;;;7.57;;
30080;SDS011;16902;50.816;12.828;2024-02-26T17:33:43;11.98;;;8.32;;
30080;SDS011;16902;50.816;12.828;2024-02-26T17:38:46;10.85;;;7.30;;
30080;SDS011;16902;50.816;12.828;2024-02-26T17:43:50;8.02;;;6.47;;
30080;SDS011;16902;50.816;12.828;2024-02-26T17:48:51;7.13;;;6.40;;
30080;SDS011;16902;50.816;12.828;2024-02-26T17:53:54;12.48;;;7.20;;
30080;SDS011;16902;50.816;12.828;2024-02-26T17:58:55;10.38;;;7.10;;
30080;SDS011;16902;50.816;12.828;2024-02-26T18:03:57;8.70;;;6.07;;
30080;SDS011;16902;50.816;12.828;2024-02-26T18:08:59;9.35;;;6.72;;
30080;SDS011;16902;50.816;12.828;2024-02-26T18:14:01;6.00;;;5.28;;
30080;SDS011;16902;50.816;12.828;2024-02-26T18:19:03;7.45;;;6.10;;
30080;SDS011;16902;50.816;12.828;2024-02-26T18:24:05;8.02;;;6.78;;
30080;SDS011;16902;50.816;12.828;2024-02-26T18:29:08;7.80;;;6.78;;
30080;SDS011;16902;50.816;12.828;2024-02-26T18:34:10;4.60;;;4.18;;
30080;SDS011;16902;50.816;12.828;2024-02-26T18:39:12;8.65;;;6.85;;
30080;SDS011;16902;50.816;12.828;2024-02-26T18:44:14;9.38;;;5.93;;
30080;SDS011;16902;50.816;12.828;2024-02-26T18:49:16;7.43;;;5.80;;
30080;SDS011;16902;50.816;12.828;2024-02-26T18:54:18;5.85;;;5.07;;
30080;SDS011;16902;50.816;12.828;2024-02-26T18:59:20;5.05;;;4.65;;
30080;SDS011;16902;50.816;12.828;2024-02-26T19:04:22;6.05;;;5.03;;
30080;SDS011;16902;50.816;12.828;2024-02-26T19:09:24;7.70;;;5.32;;
30080;SDS011;16902;50.816;12.828;2024-02-26T19:14:26;9.60;;;5.82;;
30080;SDS011;16902;50.816;12.828;2024-02-26T19:19:28;8.73;;;6.13;;
30080;SDS011;16902;50.816;12.828;2024-02-26T19:24:32;7.63;;;6.72;;
30080;SDS011;16902;50.816;12.828;2024-02-26T19:29:34;5.65;;;5.13;;
30080;SDS011;16902;50.816;12.828;2024-02-26T19:34:37;5.57;;;4.60;;
30080;SDS011;16902;50.816;12.828;2024-02-26T19:39:39;6.35;;;5.07;;
30080;SDS011;16902;50.816;12.828;2024-02-26T19:44:41;8.48;;;6.28;;
30080;SDS011;16902;50.816;12.828;2024-02-26T19:49:45;5.65;;;5.20;;
30080;SDS011;16902;50.816;12.828;2024-02-26T19:54:47;7.15;;;5.93;;
30080;SDS011;16902;50.816;12.828;2024-02-26T19:59:49;8.30;;;5.13;;
30080;SDS011;16902;50.816;12.828;2024-02-26T20:04:51;7.18;;;4.80;;
30080;SDS011;16902;50.816;12.828;2024-02-26T20:09:53;4.65;;;4.15;;
30080;SDS011;16902;50.816;12.828;2024-02-26T20:14:55;5.20;;;3.72;;
30080;SDS011;16902;50.816;12.828;2024-02-26T20:19:57;10.32;;;6.00;;
30080;SDS011;16902;50.816;12.828;2024-02-26T20:24:59;4.53;;;4.13;;
30080;SDS011;16902;50.816;12.828;2024-02-26T20:30:01;6.95;;;4.88;;
30080;SDS011;16902;50.816;12.828;2024-02-26T20:35:05;7.50;;;4.25;;
30080;SDS011;16902;50.816;12.828;2024-02-26T20:40:09;4.88;;;4.47;;
30080;SDS011;16902;50.816;12.828;2024-02-26T20:45:12;6.13;;;5.35;;
30080;SDS011;16902;50.816;12.828;2024-02-26T20:50:15;5.15;;;4.50;;
30080;SDS011;16902;50.816;12.828;2024-02-26T20:55:16;14.48;;;7.15;;
30080;SDS011;16902;50.816;12.828;2024-02-26T21:00:18;9.80;;;7.32;;
30080;SDS011;16902;50.816;12.828;2024-02-26T21:05:21;7.90;;;5.10;;
30080;SDS011;16902;50.816;12.828;2024-02-26T21:10:24;7.75;;;5.20;;
30080;SDS011;16902;50.816;12.828;2024-02-26T21:15:33;5.40;;;3.47;;
30080;SDS011;16902;50.816;12.828;2024-02-26T21:20:35;5.57;;;4.35;;
30080;SDS011;16902;50.816;12.828;2024-02-26T21:25:37;8.40;;;4.43;;
30080;SDS011;16902;50.816;12.828;2024-02-26T21:30:40;6.00;;;4.80;;
30080;SDS011;16902;50.816;12.828;2024-02-26T21:35:42;6.13;;;5.03;;
30080;SDS011;16902;50.816;12.828;2024-02-26T21:40:44;8.48;;;4.90;;
30080;SDS011;16902;50.816;12.828;2024-02-26T21:45:49;4.05;;;3.67;;
30080;SDS011;16902;50.816;12.828;2024-02-26T21:50:51;8.50;;;5.45;;
30080;SDS011;16902;50.816;12.828;2024-02-26T21:55:56;8.93;;;4.80;;
30080;SDS011;16902;50.816;12.828;2024-02-26T22:00:58;6.00;;;4.53;;
30080;SDS011;16902;50.816;12.828;2024-02-26T22:06:00;9.82;;;4.20;;
30080;SDS011;16902;50.816;12.828;2024-02-26T22:11:01;7.22;;;5.38;;
30080;SDS011;16902;50.816;12.828;2024-02-26T22:16:04;6.18;;;4.55;;
30080;SDS011;16902;50.816;12.828;2024-02-26T22:21:06;5.82;;;4.45;;
30080;SDS011;16902;50.816;12.828;2024-02-26T22:26:10;4.28;;;3.95;;
30080;SDS011;16902;50.816;12.828;2024-02-26T22:31:12;8.35;;;4.85;;
30080;SDS011;16902;50.816;12.828;2024-02-26T22:36:14;4.70;;;4.30;;
30080;SDS011;16902;50.816;12.828;2024-02-26T22:41:16;6.07;;;4.25;;
30080;SDS011;16902;50.816;12.828;2024-02-26T22:46:18;8.27;;;5.28;;
30080;SDS011;16902;50.816;12.828;2024-02-26T22:51:20;5.13;;;4.63;;
30080;SDS011;16902;50.816;12.828;2024-02-26T22:56:22;5.93;;;4.18;;
30080;SDS011;16902;50.816;12.828;2024-02-26T23:01:24;10.00;;;5.50;;
30080;SDS011;16902;50.816;12.828;2024-02-26T23:06:26;5.97;;;4.75;;
30080;SDS011;16902;50.816;12.828;2024-02-26T23:11:28;5.32;;;4.57;;
30080;SDS011;16902;50.816;12.828;2024-02-26T23:16:30;5.30;;;4.80;;
30080;SDS011;16902;50.816;12.828;2024-02-26T23:21:31;6.90;;;5.65;;
30080;SDS011;16902;50.816;12.828;2024-02-26T23:26:36;6.32;;;4.85;;
30080;SDS011;16902;50.816;12.828;2024-02-26T23:31:38;6.43;;;5.25;;
30080;SDS011;16902;50.816;12.828;2024-02-26T23:36:39;5.00;;;4.50;;
30080;SDS011;16902;50.816;12.828;2024-02-26T23:41:41;7.95;;;5.05;;
30080;SDS011;16902;50.816;12.828;2024-02-26T23:46:45;8.00;;;6.13;;
30080;SDS011;16902;50.816;12.828;2024-02-26T23:51:47;6.53;;;5.07;;
30080;SDS011;16902;50.816;12.828;2024-02-26T23:56:49;5.80;;;5.20;;
